sensor_id;sensor_type;location;lat;lon;timestamp;pressure;altitude;pressure_sealevel;temperature;humidity
64551;BME280;50945;44.472;-123.352;2023-04-26T00:01:02;100809.28;;;19.88;45.10
64551;BME280;50945;44.472;-123.352;2023-04-26T00:03:29;100800.09;;;19.88;45.31
64551;BME280;50945;44.472;-123.352;2023-04-26T00:05:56;100810.19;;;19.82;44.88
64551;BME280;50945;44.472;-123.352;2023-04-26T00:08:22;100801.72;;;19.77;44.40
64551;BME280;50945;44.472;-123.352;2023-04-26T00:10:48;100803.44;;;19.78;43.85
64551;BME280;50945;44.472;-123.352;2023-04-26T00:13:14;100802.44;;;19.72;44.62
64551;BME280;50945;44.472;-123.352;2023-04-26T00:15:40;100806.84;;;19.62;43.05
64551;BME280;50945;44.472;-123.352;2023-04-26T00:18:07;100808.38;;;19.57;45.16
64551;BME280;50945;44.472;-123.352;2023-04-26T00:20:33;100813.31;;;19.55;45.07
64551;BME280;50945;44.472;-123.352;2023-04-26T00:23:02;100809.47;;;19.56;44.45
64551;BME280;50945;44.472;-123.352;2023-04-26T00:25:29;100807.75;;;19.55;43.88
64551;BME280;50945;44.472;-123.352;2023-04-26T00:27:55;100800.53;;;19.54;44.40
64551;BME280;50945;44.472;-123.352;2023-04-26T00:30:21;100795.91;;;19.48;44.83
64551;BME280;50945;44.472;-123.352;2023-04-26T00:32:47;100796.00;;;19.42;43.09
64551;BME280;50945;44.472;-123.352;2023-04-26T00:35:13;100791.63;;;19.34;44.57
64551;BME280;50945;44.472;-123.352;2023-04-26T00:37:41;100794.94;;;19.24;44.50
64551;BME280;50945;44.472;-123.352;2023-04-26T00:40:08;100800.84;;;19.09;44.57
64551;BME280;50945;44.472;-123.352;2023-04-26T00:42:36;100798.63;;;18.99;44.62
64551;BME280;50945;44.472;-123.352;2023-04-26T00:45:03;100805.06;;;18.93;45.55
64551;BME280;50945;44.472;-123.352;2023-04-26T00:47:28;100798.00;;;18.72;37.18
64551;BME280;50945;44.472;-123.352;2023-04-26T00:49:55;100799.09;;;18.71;46.14
64551;BME280;50945;44.472;-123.352;2023-04-26T00:52:21;100805.25;;;18.73;46.24
64551;BME280;50945;44.472;-123.352;2023-04-26T00:54:48;100809.34;;;18.71;45.81
64551;BME280;50945;44.472;-123.352;2023-04-26T00:57:16;100808.56;;;18.64;45.68
64551;BME280;50945;44.472;-123.352;2023-04-26T00:59:42;100798.53;;;18.62;46.33
64551;BME280;50945;44.472;-123.352;2023-04-26T01:02:08;100800.69;;;18.60;45.92
64551;BME280;50945;44.472;-123.352;2023-04-26T01:04:35;100803.91;;;18.57;45.87
64551;BME280;50945;44.472;-123.352;2023-04-26T01:07:02;100808.22;;;18.53;45.54
64551;BME280;50945;44.472;-123.352;2023-04-26T01:09:30;100808.53;;;18.38;39.44
64551;BME280;50945;44.472;-123.352;2023-04-26T01:11:57;100809.41;;;18.39;46.58
64551;BME280;50945;44.472;-123.352;2023-04-26T01:14:23;100800.34;;;18.25;39.14
64551;BME280;50945;44.472;-123.352;2023-04-26T01:16:50;100803.56;;;18.22;43.79
64551;BME280;50945;44.472;-123.352;2023-04-26T01:19:17;100797.47;;;18.13;45.06
64551;BME280;50945;44.472;-123.352;2023-04-26T01:21:43;100798.63;;;17.99;39.52
64551;BME280;50945;44.472;-123.352;2023-04-26T01:24:10;100801.84;;;17.96;45.40
64551;BME280;50945;44.472;-123.352;2023-04-26T01:26:37;100799.97;;;17.90;45.71
64551;BME280;50945;44.472;-123.352;2023-04-26T01:29:15;100810.81;;;17.84;45.38
64551;BME280;50945;44.472;-123.352;2023-04-26T01:31:42;100800.19;;;17.81;45.39
64551;BME280;50945;44.472;-123.352;2023-04-26T01:34:08;100799.16;;;17.76;45.55
64551;BME280;50945;44.472;-123.352;2023-04-26T01:36:34;100803.47;;;17.65;36.45
64551;BME280;50945;44.472;-123.352;2023-04-26T01:39:01;100798.16;;;17.63;45.87
64551;BME280;50945;44.472;-123.352;2023-04-26T01:41:27;100793.94;;;17.61;46.08
64551;BME280;50945;44.472;-123.352;2023-04-26T01:43:53;100790.56;;;17.59;46.14
64551;BME280;50945;44.472;-123.352;2023-04-26T01:46:20;100794.59;;;17.56;46.31
64551;BME280;50945;44.472;-123.352;2023-04-26T01:48:47;100794.41;;;17.51;45.71
64551;BME280;50945;44.472;-123.352;2023-04-26T01:51:13;100793.56;;;17.51;45.96
64551;BME280;50945;44.472;-123.352;2023-04-26T01:53:41;100796.75;;;17.47;45.41
64551;BME280;50945;44.472;-123.352;2023-04-26T01:56:07;100792.75;;;17.43;44.63
64551;BME280;50945;44.472;-123.352;2023-04-26T01:58:34;100795.72;;;17.42;45.38
64551;BME280;50945;44.472;-123.352;2023-04-26T02:01:08;100788.50;;;17.41;44.84
64551;BME280;50945;44.472;-123.352;2023-04-26T02:03:35;100794.47;;;17.38;45.50
64551;BME280;50945;44.472;-123.352;2023-04-26T02:06:01;100782.81;;;17.36;45.52
64551;BME280;50945;44.472;-123.352;2023-04-26T02:08:27;100789.38;;;17.35;45.72
64551;BME280;50945;44.472;-123.352;2023-04-26T02:10:54;100788.13;;;17.31;45.69
64551;BME280;50945;44.472;-123.352;2023-04-26T02:13:21;100784.09;;;17.26;46.17
64551;BME280;50945;44.472;-123.352;2023-04-26T02:15:48;100774.34;;;17.17;45.92
64551;BME280;50945;44.472;-123.352;2023-04-26T02:18:15;100775.25;;;17.11;46.28
64551;BME280;50945;44.472;-123.352;2023-04-26T02:20:44;100780.56;;;17.06;46.69
64551;BME280;50945;44.472;-123.352;2023-04-26T02:23:10;100782.03;;;17.02;46.19
64551;BME280;50945;44.472;-123.352;2023-04-26T02:25:37;100783.97;;;16.95;46.35
64551;BME280;50945;44.472;-123.352;2023-04-26T02:28:04;100778.28;;;16.89;46.29
64551;BME280;50945;44.472;-123.352;2023-04-26T02:30:31;100778.72;;;16.86;46.38
64551;BME280;50945;44.472;-123.352;2023-04-26T02:32:57;100774.63;;;16.82;46.68
64551;BME280;50945;44.472;-123.352;2023-04-26T02:35:24;100779.72;;;16.79;46.81
64551;BME280;50945;44.472;-123.352;2023-04-26T02:37:51;100775.31;;;16.71;46.84
64551;BME280;50945;44.472;-123.352;2023-04-26T02:40:18;100780.81;;;16.64;47.56
64551;BME280;50945;44.472;-123.352;2023-04-26T02:42:44;100785.09;;;16.53;47.39
64551;BME280;50945;44.472;-123.352;2023-04-26T02:45:10;100781.69;;;16.45;47.27
64551;BME280;50945;44.472;-123.352;2023-04-26T02:47:37;100785.75;;;16.35;47.71
64551;BME280;50945;44.472;-123.352;2023-04-26T02:50:07;100793.16;;;16.22;48.66
64551;BME280;50945;44.472;-123.352;2023-04-26T02:52:34;100789.13;;;16.04;49.02
64551;BME280;50945;44.472;-123.352;2023-04-26T02:55:05;100793.34;;;15.87;48.92
64551;BME280;50945;44.472;-123.352;2023-04-26T02:57:31;100800.69;;;15.73;48.97
64551;BME280;50945;44.472;-123.352;2023-04-26T02:59:58;100796.44;;;15.64;48.82
64551;BME280;50945;44.472;-123.352;2023-04-26T03:02:28;100792.63;;;15.58;48.74
64551;BME280;50945;44.472;-123.352;2023-04-26T03:04:55;100790.88;;;15.50;49.25
64551;BME280;50945;44.472;-123.352;2023-04-26T03:07:21;100792.97;;;15.42;49.34
64551;BME280;50945;44.472;-123.352;2023-04-26T03:09:47;100793.75;;;15.29;49.54
64551;BME280;50945;44.472;-123.352;2023-04-26T03:12:14;100798.78;;;15.18;49.66
64551;BME280;50945;44.472;-123.352;2023-04-26T03:14:41;100794.13;;;15.12;49.70
64551;BME280;50945;44.472;-123.352;2023-04-26T03:17:07;100797.22;;;15.02;49.58
64551;BME280;50945;44.472;-123.352;2023-04-26T03:19:33;100799.09;;;14.95;49.95
64551;BME280;50945;44.472;-123.352;2023-04-26T03:21:59;100797.16;;;14.89;50.06
64551;BME280;50945;44.472;-123.352;2023-04-26T03:24:25;100804.72;;;14.80;50.88
64551;BME280;50945;44.472;-123.352;2023-04-26T03:26:53;100805.94;;;14.71;51.12
64551;BME280;50945;44.472;-123.352;2023-04-26T03:29:19;100806.00;;;14.56;51.90
64551;BME280;50945;44.472;-123.352;2023-04-26T03:31:46;100814.34;;;14.41;52.47
64551;BME280;50945;44.472;-123.352;2023-04-26T03:34:12;100812.47;;;14.20;53.00
64551;BME280;50945;44.472;-123.352;2023-04-26T03:36:38;100816.53;;;14.03;53.17
64551;BME280;50945;44.472;-123.352;2023-04-26T03:39:04;100818.72;;;13.86;54.28
64551;BME280;50945;44.472;-123.352;2023-04-26T03:41:31;100822.34;;;13.72;54.20
64551;BME280;50945;44.472;-123.352;2023-04-26T03:43:58;100819.06;;;13.61;54.49
64551;BME280;50945;44.472;-123.352;2023-04-26T03:46:24;100825.72;;;13.52;54.45
64551;BME280;50945;44.472;-123.352;2023-04-26T03:48:50;100820.72;;;13.41;54.44
64551;BME280;50945;44.472;-123.352;2023-04-26T03:51:16;100820.53;;;13.27;55.34
64551;BME280;50945;44.472;-123.352;2023-04-26T03:53:42;100819.78;;;13.19;55.06
64551;BME280;50945;44.472;-123.352;2023-04-26T03:56:11;100824.97;;;13.13;55.50
64551;BME280;50945;44.472;-123.352;2023-04-26T03:58:37;100825.25;;;13.04;55.50
64551;BME280;50945;44.472;-123.352;2023-04-26T04:01:03;100820.06;;;12.94;55.86
64551;BME280;50945;44.472;-123.352;2023-04-26T04:03:30;100826.69;;;12.85;56.48
64551;BME280;50945;44.472;-123.352;2023-04-26T04:05:56;100826.75;;;12.77;57.08
64551;BME280;50945;44.472;-123.352;2023-04-26T04:08:22;100831.19;;;12.63;57.30
64551;BME280;50945;44.472;-123.352;2023-04-26T04:10:48;100834.38;;;12.51;57.96
64551;BME280;50945;44.472;-123.352;2023-04-26T04:13:15;100838.63;;;12.39;58.44
64551;BME280;50945;44.472;-123.352;2023-04-26T04:15:41;100843.50;;;12.29;58.74
64551;BME280;50945;44.472;-123.352;2023-04-26T04:18:10;100839.97;;;12.20;58.53
64551;BME280;50945;44.472;-123.352;2023-04-26T04:20:36;100834.56;;;12.12;58.71
64551;BME280;50945;44.472;-123.352;2023-04-26T04:23:05;100843.19;;;12.01;59.24
64551;BME280;50945;44.472;-123.352;2023-04-26T04:25:33;100850.09;;;11.88;59.15
64551;BME280;50945;44.472;-123.352;2023-04-26T04:28:00;100847.97;;;11.75;59.42
64551;BME280;50945;44.472;-123.352;2023-04-26T04:30:35;100856.41;;;11.66;59.92
64551;BME280;50945;44.472;-123.352;2023-04-26T04:33:11;100858.34;;;11.57;59.94
64551;BME280;50945;44.472;-123.352;2023-04-26T04:35:39;100850.66;;;11.52;60.15
64551;BME280;50945;44.472;-123.352;2023-04-26T04:38:05;100856.84;;;11.46;60.11
64551;BME280;50945;44.472;-123.352;2023-04-26T04:40:32;100855.16;;;11.37;60.15
64551;BME280;50945;44.472;-123.352;2023-04-26T04:42:58;100855.03;;;11.30;60.54
64551;BME280;50945;44.472;-123.352;2023-04-26T04:45:25;100851.97;;;11.25;60.34
64551;BME280;50945;44.472;-123.352;2023-04-26T04:47:52;100851.31;;;11.23;60.35
64551;BME280;50945;44.472;-123.352;2023-04-26T04:50:21;100861.38;;;11.22;61.00
64551;BME280;50945;44.472;-123.352;2023-04-26T04:52:58;100862.59;;;11.20;60.95
64551;BME280;50945;44.472;-123.352;2023-04-26T04:55:30;100857.81;;;11.14;61.23
64551;BME280;50945;44.472;-123.352;2023-04-26T04:58:01;100862.50;;;11.05;61.56
64551;BME280;50945;44.472;-123.352;2023-04-26T05:00:28;100848.16;;;10.95;61.70
64551;BME280;50945;44.472;-123.352;2023-04-26T05:02:55;100865.25;;;10.89;62.02
64551;BME280;50945;44.472;-123.352;2023-04-26T05:05:21;100849.38;;;10.84;61.86
64551;BME280;50945;44.472;-123.352;2023-04-26T05:07:49;100861.34;;;10.83;61.99
64551;BME280;50945;44.472;-123.352;2023-04-26T05:10:15;100853.81;;;10.85;62.04
64551;BME280;50945;44.472;-123.352;2023-04-26T05:12:41;100860.81;;;10.88;61.59
64551;BME280;50945;44.472;-123.352;2023-04-26T05:15:09;100861.34;;;10.83;62.29
64551;BME280;50945;44.472;-123.352;2023-04-26T05:17:35;100858.44;;;10.76;62.20
64551;BME280;50945;44.472;-123.352;2023-04-26T05:20:02;100869.56;;;10.75;62.17
64551;BME280;50945;44.472;-123.352;2023-04-26T05:22:31;100866.84;;;10.75;62.07
64551;BME280;50945;44.472;-123.352;2023-04-26T05:25:01;100870.41;;;10.75;62.08
64551;BME280;50945;44.472;-123.352;2023-04-26T05:27:27;100873.31;;;10.74;61.76
64551;BME280;50945;44.472;-123.352;2023-04-26T05:29:54;100873.50;;;10.72;62.11
64551;BME280;50945;44.472;-123.352;2023-04-26T05:32:20;100875.38;;;10.72;62.58
64551;BME280;50945;44.472;-123.352;2023-04-26T05:34:47;100865.78;;;10.68;63.21
64551;BME280;50945;44.472;-123.352;2023-04-26T05:37:13;100875.38;;;10.63;63.15
64551;BME280;50945;44.472;-123.352;2023-04-26T05:39:42;100868.38;;;10.61;63.03
64551;BME280;50945;44.472;-123.352;2023-04-26T05:42:08;100869.94;;;10.55;63.07
64551;BME280;50945;44.472;-123.352;2023-04-26T05:44:35;100877.28;;;10.46;63.88
64551;BME280;50945;44.472;-123.352;2023-04-26T05:47:01;100875.91;;;10.42;63.86
64551;BME280;50945;44.472;-123.352;2023-04-26T05:49:28;100876.44;;;10.38;63.68
64551;BME280;50945;44.472;-123.352;2023-04-26T05:51:58;100875.03;;;10.34;63.68
64551;BME280;50945;44.472;-123.352;2023-04-26T05:54:25;100873.53;;;10.31;63.94
64551;BME280;50945;44.472;-123.352;2023-04-26T05:56:51;100877.09;;;10.23;64.40
64551;BME280;50945;44.472;-123.352;2023-04-26T05:59:18;100875.19;;;10.16;64.31
64551;BME280;50945;44.472;-123.352;2023-04-26T06:01:44;100877.41;;;10.04;65.32
64551;BME280;50945;44.472;-123.352;2023-04-26T06:04:10;100865.59;;;9.95;65.58
64551;BME280;50945;44.472;-123.352;2023-04-26T06:06:37;100866.25;;;9.89;65.62
64551;BME280;50945;44.472;-123.352;2023-04-26T06:09:03;100865.59;;;9.87;66.19
64551;BME280;50945;44.472;-123.352;2023-04-26T06:11:29;100875.81;;;9.85;66.39
64551;BME280;50945;44.472;-123.352;2023-04-26T06:13:55;100857.38;;;9.87;65.33
64551;BME280;50945;44.472;-123.352;2023-04-26T06:16:22;100862.69;;;9.88;65.74
64551;BME280;50945;44.472;-123.352;2023-04-26T06:18:48;100858.94;;;9.89;65.39
64551;BME280;50945;44.472;-123.352;2023-04-26T06:21:14;100856.22;;;9.89;65.97
64551;BME280;50945;44.472;-123.352;2023-04-26T06:23:40;100857.91;;;9.90;66.09
64551;BME280;50945;44.472;-123.352;2023-04-26T06:26:07;100845.09;;;9.91;65.53
64551;BME280;50945;44.472;-123.352;2023-04-26T06:28:33;100854.00;;;9.93;66.19
64551;BME280;50945;44.472;-123.352;2023-04-26T06:30:59;100858.59;;;9.93;66.12
64551;BME280;50945;44.472;-123.352;2023-04-26T06:33:26;100849.38;;;9.94;66.43
64551;BME280;50945;44.472;-123.352;2023-04-26T06:35:52;100846.31;;;9.97;65.62
64551;BME280;50945;44.472;-123.352;2023-04-26T06:38:18;100852.31;;;10.00;65.90
64551;BME280;50945;44.472;-123.352;2023-04-26T06:40:45;100854.69;;;9.95;66.57
64551;BME280;50945;44.472;-123.352;2023-04-26T06:43:11;100849.72;;;9.90;66.42
64551;BME280;50945;44.472;-123.352;2023-04-26T06:45:37;100859.13;;;9.88;66.18
64551;BME280;50945;44.472;-123.352;2023-04-26T06:48:04;100856.03;;;9.83;66.79
64551;BME280;50945;44.472;-123.352;2023-04-26T06:50:31;100858.09;;;9.81;66.81
64551;BME280;50945;44.472;-123.352;2023-04-26T06:52:57;100854.47;;;9.80;66.94
64551;BME280;50945;44.472;-123.352;2023-04-26T06:55:25;100858.09;;;9.81;66.98
64551;BME280;50945;44.472;-123.352;2023-04-26T06:57:51;100863.53;;;9.81;66.99
64551;BME280;50945;44.472;-123.352;2023-04-26T07:00:17;100863.88;;;9.78;67.64
64551;BME280;50945;44.472;-123.352;2023-04-26T07:02:45;100869.97;;;9.71;67.66
64551;BME280;50945;44.472;-123.352;2023-04-26T07:05:11;100864.00;;;9.68;67.71
64551;BME280;50945;44.472;-123.352;2023-04-26T07:07:39;100860.91;;;9.63;67.60
64551;BME280;50945;44.472;-123.352;2023-04-26T07:10:06;100864.84;;;9.60;68.18
64551;BME280;50945;44.472;-123.352;2023-04-26T07:12:33;100867.72;;;9.59;68.13
64551;BME280;50945;44.472;-123.352;2023-04-26T07:14:59;100862.28;;;9.59;67.81
64551;BME280;50945;44.472;-123.352;2023-04-26T07:17:26;100868.56;;;9.59;68.94
64551;BME280;50945;44.472;-123.352;2023-04-26T07:19:52;100871.81;;;9.63;67.72
64551;BME280;50945;44.472;-123.352;2023-04-26T07:22:18;100880.56;;;9.66;67.71
64551;BME280;50945;44.472;-123.352;2023-04-26T07:24:44;100874.56;;;9.63;69.96
64551;BME280;50945;44.472;-123.352;2023-04-26T07:27:10;100881.91;;;9.62;67.77
64551;BME280;50945;44.472;-123.352;2023-04-26T07:29:37;100875.75;;;9.60;68.38
64551;BME280;50945;44.472;-123.352;2023-04-26T07:32:03;100883.59;;;9.55;71.78
64551;BME280;50945;44.472;-123.352;2023-04-26T07:34:29;100876.75;;;9.51;68.00
64551;BME280;50945;44.472;-123.352;2023-04-26T07:36:56;100871.97;;;9.53;68.08
64551;BME280;50945;44.472;-123.352;2023-04-26T07:39:22;100869.63;;;9.58;68.11
64551;BME280;50945;44.472;-123.352;2023-04-26T07:41:48;100875.44;;;9.63;67.63
64551;BME280;50945;44.472;-123.352;2023-04-26T07:44:15;100873.06;;;9.68;67.27
64551;BME280;50945;44.472;-123.352;2023-04-26T07:46:41;100874.44;;;9.73;67.51
64551;BME280;50945;44.472;-123.352;2023-04-26T07:49:07;100884.66;;;9.79;67.52
64551;BME280;50945;44.472;-123.352;2023-04-26T07:51:34;100878.38;;;9.78;67.45
64551;BME280;50945;44.472;-123.352;2023-04-26T07:54:01;100874.75;;;9.69;67.80
64551;BME280;50945;44.472;-123.352;2023-04-26T07:56:27;100877.81;;;9.58;68.25
64551;BME280;50945;44.472;-123.352;2023-04-26T07:58:53;100884.41;;;9.47;68.81
64551;BME280;50945;44.472;-123.352;2023-04-26T08:01:20;100890.53;;;9.41;69.63
64551;BME280;50945;44.472;-123.352;2023-04-26T08:03:46;100883.22;;;9.42;68.90
64551;BME280;50945;44.472;-123.352;2023-04-26T08:06:13;100868.69;;;9.41;72.43
64551;BME280;50945;44.472;-123.352;2023-04-26T08:08:39;100885.59;;;9.45;68.94
64551;BME280;50945;44.472;-123.352;2023-04-26T08:11:09;100883.91;;;9.52;68.81
64551;BME280;50945;44.472;-123.352;2023-04-26T08:13:35;100883.41;;;9.57;68.57
64551;BME280;50945;44.472;-123.352;2023-04-26T08:16:02;100888.88;;;9.57;69.26
64551;BME280;50945;44.472;-123.352;2023-04-26T08:18:28;100877.59;;;9.51;69.17
64551;BME280;50945;44.472;-123.352;2023-04-26T08:20:54;100870.78;;;9.47;69.47
64551;BME280;50945;44.472;-123.352;2023-04-26T08:23:21;100883.56;;;9.47;68.97
64551;BME280;50945;44.472;-123.352;2023-04-26T08:25:47;100875.72;;;9.44;71.56
64551;BME280;50945;44.472;-123.352;2023-04-26T08:28:14;100876.03;;;9.41;69.35
64551;BME280;50945;44.472;-123.352;2023-04-26T08:30:41;100879.06;;;9.38;70.04
64551;BME280;50945;44.472;-123.352;2023-04-26T08:33:10;100875.66;;;9.36;69.96
64551;BME280;50945;44.472;-123.352;2023-04-26T08:35:37;100883.00;;;9.35;69.66
64551;BME280;50945;44.472;-123.352;2023-04-26T08:38:03;100880.28;;;9.35;69.81
64551;BME280;50945;44.472;-123.352;2023-04-26T08:40:29;100877.19;;;9.30;70.07
64551;BME280;50945;44.472;-123.352;2023-04-26T08:42:56;100865.91;;;9.25;70.15
64551;BME280;50945;44.472;-123.352;2023-04-26T08:45:23;100871.31;;;9.17;70.92
64551;BME280;50945;44.472;-123.352;2023-04-26T08:47:55;100879.16;;;9.11;70.99
64551;BME280;50945;44.472;-123.352;2023-04-26T08:50:24;100864.31;;;9.14;70.46
64551;BME280;50945;44.472;-123.352;2023-04-26T08:52:51;100864.84;;;9.18;70.97
64551;BME280;50945;44.472;-123.352;2023-04-26T08:55:18;100861.47;;;9.24;70.67
64551;BME280;50945;44.472;-123.352;2023-04-26T08:57:47;100862.00;;;9.27;70.93
64551;BME280;50945;44.472;-123.352;2023-04-26T09:00:15;100859.09;;;9.29;70.40
64551;BME280;50945;44.472;-123.352;2023-04-26T09:02:47;100858.41;;;9.27;71.14
64551;BME280;50945;44.472;-123.352;2023-04-26T09:05:14;100865.38;;;9.21;71.96
64551;BME280;50945;44.472;-123.352;2023-04-26T09:07:45;100862.06;;;9.09;71.29
64551;BME280;50945;44.472;-123.352;2023-04-26T09:10:13;100862.53;;;8.97;71.86
64551;BME280;50945;44.472;-123.352;2023-04-26T09:12:44;100867.94;;;8.88;71.54
64551;BME280;50945;44.472;-123.352;2023-04-26T09:15:10;100865.00;;;8.82;72.75
64551;BME280;50945;44.472;-123.352;2023-04-26T09:17:37;100864.31;;;8.80;72.70
64551;BME280;50945;44.472;-123.352;2023-04-26T09:20:27;100862.75;;;8.77;74.04
64551;BME280;50945;44.472;-123.352;2023-04-26T09:23:04;100863.06;;;8.74;72.92
64551;BME280;50945;44.472;-123.352;2023-04-26T09:25:31;100861.22;;;8.74;73.00
64551;BME280;50945;44.472;-123.352;2023-04-26T09:27:58;100859.47;;;8.73;73.95
64551;BME280;50945;44.472;-123.352;2023-04-26T09:30:25;100852.97;;;8.66;74.34
64551;BME280;50945;44.472;-123.352;2023-04-26T09:32:59;100853.78;;;8.59;74.28
64551;BME280;50945;44.472;-123.352;2023-04-26T09:35:34;100848.63;;;8.55;74.26
64551;BME280;50945;44.472;-123.352;2023-04-26T09:40:33;100840.63;;;8.54;74.58
64551;BME280;50945;44.472;-123.352;2023-04-26T09:43:02;100846.75;;;8.56;73.05
64551;BME280;50945;44.472;-123.352;2023-04-26T09:45:30;100844.75;;;8.58;73.98
64551;BME280;50945;44.472;-123.352;2023-04-26T09:48:25;100834.84;;;8.57;75.83
64551;BME280;50945;44.472;-123.352;2023-04-26T09:50:54;100835.81;;;8.48;73.84
64551;BME280;50945;44.472;-123.352;2023-04-26T09:56:15;100831.75;;;8.34;75.02
64551;BME280;50945;44.472;-123.352;2023-04-26T10:01:17;100831.22;;;8.30;74.55
64551;BME280;50945;44.472;-123.352;2023-04-26T10:03:45;100831.91;;;8.32;74.46
64551;BME280;50945;44.472;-123.352;2023-04-26T10:06:12;100834.34;;;8.35;73.51
64551;BME280;50945;44.472;-123.352;2023-04-26T10:08:38;100829.25;;;8.41;73.53
64551;BME280;50945;44.472;-123.352;2023-04-26T10:11:05;100830.97;;;8.42;73.95
64551;BME280;50945;44.472;-123.352;2023-04-26T10:13:40;100833.16;;;8.38;73.67
64551;BME280;50945;44.472;-123.352;2023-04-26T10:16:08;100828.34;;;8.32;73.72
64551;BME280;50945;44.472;-123.352;2023-04-26T10:18:37;100829.84;;;8.26;74.70
64551;BME280;50945;44.472;-123.352;2023-04-26T10:21:33;100829.53;;;8.11;76.93
64551;BME280;50945;44.472;-123.352;2023-04-26T10:24:02;100831.81;;;7.98;75.22
64551;BME280;50945;44.472;-123.352;2023-04-26T10:29:14;100827.91;;;7.83;75.73
64551;BME280;50945;44.472;-123.352;2023-04-26T10:34:37;100835.69;;;7.77;76.31
64551;BME280;50945;44.472;-123.352;2023-04-26T10:37:16;100837.72;;;7.75;77.20
64551;BME280;50945;44.472;-123.352;2023-04-26T10:39:44;100833.59;;;7.71;76.82
64551;BME280;50945;44.472;-123.352;2023-04-26T10:44:51;100839.59;;;7.75;77.88
64551;BME280;50945;44.472;-123.352;2023-04-26T10:47:23;100835.00;;;7.75;77.46
64551;BME280;50945;44.472;-123.352;2023-04-26T10:49:49;100824.09;;;7.75;76.93
64551;BME280;50945;44.472;-123.352;2023-04-26T10:52:18;100826.69;;;7.77;76.92
64551;BME280;50945;44.472;-123.352;2023-04-26T10:57:15;100827.47;;;7.69;76.51
64551;BME280;50945;44.472;-123.352;2023-04-26T11:02:58;100836.31;;;7.53;77.75
64551;BME280;50945;44.472;-123.352;2023-04-26T11:05:38;100838.47;;;7.50;78.24
64551;BME280;50945;44.472;-123.352;2023-04-26T11:10:39;100844.41;;;7.35;78.22
64551;BME280;50945;44.472;-123.352;2023-04-26T11:13:06;100846.44;;;7.33;78.67
64551;BME280;50945;44.472;-123.352;2023-04-26T11:15:33;100840.53;;;7.38;78.43
64551;BME280;50945;44.472;-123.352;2023-04-26T11:18:03;100846.94;;;7.47;78.15
64551;BME280;50945;44.472;-123.352;2023-04-26T11:20:32;100851.47;;;7.56;77.89
64551;BME280;50945;44.472;-123.352;2023-04-26T11:22:59;100857.59;;;7.58;77.74
64551;BME280;50945;44.472;-123.352;2023-04-26T11:25:27;100844.63;;;7.52;78.08
64551;BME280;50945;44.472;-123.352;2023-04-26T11:27:59;100840.47;;;7.48;78.72
64551;BME280;50945;44.472;-123.352;2023-04-26T11:30:33;100836.06;;;7.47;79.09
64551;BME280;50945;44.472;-123.352;2023-04-26T11:33:00;100839.47;;;7.49;78.26
64551;BME280;50945;44.472;-123.352;2023-04-26T11:35:27;100831.16;;;7.50;78.38
64551;BME280;50945;44.472;-123.352;2023-04-26T11:37:57;100827.91;;;7.47;78.37
64551;BME280;50945;44.472;-123.352;2023-04-26T11:40:27;100835.50;;;7.43;78.59
64551;BME280;50945;44.472;-123.352;2023-04-26T11:42:53;100832.09;;;7.41;78.89
64551;BME280;50945;44.472;-123.352;2023-04-26T11:45:23;100829.81;;;7.36;79.57
64551;BME280;50945;44.472;-123.352;2023-04-26T11:47:49;100834.00;;;7.31;79.72
64551;BME280;50945;44.472;-123.352;2023-04-26T11:50:16;100829.00;;;7.26;80.08
64551;BME280;50945;44.472;-123.352;2023-04-26T11:52:43;100827.59;;;7.22;79.82
64551;BME280;50945;44.472;-123.352;2023-04-26T11:55:09;100825.19;;;7.19;79.86
64551;BME280;50945;44.472;-123.352;2023-04-26T11:57:36;100833.81;;;7.14;79.68
64551;BME280;50945;44.472;-123.352;2023-04-26T12:00:20;100837.81;;;7.10;80.52
64551;BME280;50945;44.472;-123.352;2023-04-26T12:02:48;100836.56;;;7.04;80.02
64551;BME280;50945;44.472;-123.352;2023-04-26T12:07:55;100832.19;;;6.94;80.65
64551;BME280;50945;44.472;-123.352;2023-04-26T12:10:36;100828.06;;;6.90;80.79
64551;BME280;50945;44.472;-123.352;2023-04-26T12:13:02;100829.03;;;6.89;80.71
64551;BME280;50945;44.472;-123.352;2023-04-26T12:15:31;100820.75;;;6.90;80.83
64551;BME280;50945;44.472;-123.352;2023-04-26T12:18:05;100827.59;;;6.94;80.20
64551;BME280;50945;44.472;-123.352;2023-04-26T12:20:37;100822.84;;;6.96;80.30
64551;BME280;50945;44.472;-123.352;2023-04-26T12:23:12;100818.28;;;6.97;80.92
64551;BME280;50945;44.472;-123.352;2023-04-26T12:25:40;100811.69;;;6.99;81.38
64551;BME280;50945;44.472;-123.352;2023-04-26T12:28:12;100806.94;;;7.01;81.58
64551;BME280;50945;44.472;-123.352;2023-04-26T12:30:39;100810.69;;;7.00;81.86
64551;BME280;50945;44.472;-123.352;2023-04-26T12:33:05;100811.69;;;6.99;81.97
64551;BME280;50945;44.472;-123.352;2023-04-26T12:35:33;100814.41;;;6.99;80.40
64551;BME280;50945;44.472;-123.352;2023-04-26T12:37:59;100820.13;;;6.96;80.56
64551;BME280;50945;44.472;-123.352;2023-04-26T12:40:29;100827.03;;;6.91;81.41
64551;BME280;50945;44.472;-123.352;2023-04-26T12:42:55;100832.22;;;6.84;81.93
64551;BME280;50945;44.472;-123.352;2023-04-26T12:45:23;100831.81;;;6.79;81.04
64551;BME280;50945;44.472;-123.352;2023-04-26T12:47:50;100832.25;;;6.74;81.16
64551;BME280;50945;44.472;-123.352;2023-04-26T12:50:16;100829.69;;;6.73;81.41
64551;BME280;50945;44.472;-123.352;2023-04-26T12:52:43;100837.13;;;6.71;82.31
64551;BME280;50945;44.472;-123.352;2023-04-26T12:55:11;100825.25;;;6.72;81.59